createdAt,value
2022-08-26T00:02:02.587Z,23.78
2022-08-26T00:04:32.595Z,23.68
2022-08-26T00:07:02.079Z,23.51
2022-08-26T00:09:32.877Z,23.68
2022-08-26T00:12:06.714Z,23.30
2022-08-26T00:14:36.480Z,23.55
2022-08-26T00:17:06.334Z,23.51
2022-08-26T00:19:38.070Z,23.61
2022-08-26T00:22:09.472Z,23.57
2022-08-26T00:24:40.960Z,23.57
2022-08-26T00:27:12.719Z,23.44
2022-08-26T00:29:42.239Z,23.44
2022-08-26T00:32:12.479Z,23.44
2022-08-26T00:34:44.133Z,23.23
2022-08-26T00:37:16.297Z,23.41
2022-08-26T00:39:45.769Z,23.14
2022-08-26T00:42:15.257Z,23.32
2022-08-26T00:44:45.738Z,23.53
2022-08-26T00:47:24.299Z,23.30
2022-08-26T00:49:56.580Z,23.42
2022-08-26T00:52:27.752Z,23.08
2022-08-26T00:55:03.750Z,23.41
2022-08-26T00:57:35.023Z,23.40
2022-08-26T01:00:09.705Z,23.40
2022-08-26T01:02:40.394Z,23.41
2022-08-26T01:05:12.558Z,23.41
2022-08-26T01:07:42.704Z,23.60
2022-08-26T01:10:17.163Z,23.34
2022-08-26T01:12:50.356Z,23.43
2022-08-26T01:15:23.135Z,23.47
2022-08-26T01:17:52.971Z,23.57
2022-08-26T01:20:31.774Z,23.08
2022-08-26T01:23:04.842Z,23.17
2022-08-26T01:25:37.532Z,23.16
2022-08-26T01:28:13.950Z,22.84
2022-08-26T01:30:46.612Z,22.91
2022-08-26T01:33:19.255Z,23.01
2022-08-26T01:35:49.480Z,22.99
2022-08-26T01:38:19.502Z,22.85
2022-08-26T01:40:49.918Z,22.66
2022-08-26T01:43:23.236Z,22.66
2022-08-26T01:45:54.863Z,22.57
2022-08-26T01:48:28.421Z,22.77
2022-08-26T01:50:58.428Z,22.70
2022-08-26T01:53:28.850Z,22.90
2022-08-26T01:56:02.123Z,22.90
2022-08-26T01:58:35.925Z,22.98
2022-08-26T02:01:06.549Z,22.71
2022-08-26T02:03:57.332Z,22.64
2022-08-26T02:06:28.092Z,22.77
2022-08-26T02:09:00.916Z,22.89
2022-08-26T02:11:30.929Z,22.84
2022-08-26T02:14:03.762Z,22.81
2022-08-26T02:16:36.595Z,22.83
2022-08-26T02:19:07.687Z,22.62
2022-08-26T02:21:41.022Z,22.74
2022-08-26T02:24:14.296Z,22.92
2022-08-26T02:26:46.414Z,22.96
2022-08-26T02:29:22.385Z,22.87
2022-08-26T02:31:55.121Z,22.85
2022-08-26T02:34:31.017Z,22.94
2022-08-26T02:37:03.568Z,23.02
2022-08-26T02:39:35.052Z,23.25
2022-08-26T02:42:07.057Z,23.24
2022-08-26T02:44:36.913Z,23.01
2022-08-26T02:47:08.463Z,22.92
2022-08-26T02:49:39.942Z,22.75
2022-08-26T02:52:12.568Z,22.75
2022-08-26T02:54:42.110Z,22.84
2022-08-26T02:57:12.614Z,22.84
2022-08-26T02:59:42.464Z,22.86
2022-08-26T03:02:12.799Z,22.86
2022-08-26T03:04:57.686Z,22.97
2022-08-26T03:07:14.433Z,22.83
2022-08-26T03:09:44.213Z,22.90
2022-08-26T03:12:14.225Z,23.18
2022-08-26T03:14:44.006Z,23.14
2022-08-26T03:17:14.034Z,23.10
2022-08-26T03:19:43.868Z,23.10
2022-08-26T03:22:14.492Z,23.00
2022-08-26T03:24:46.042Z,23.27
2022-08-26T03:27:16.013Z,23.21
2022-08-26T03:30:04.743Z,23.24
2022-08-26T03:32:34.229Z,23.11
2022-08-26T03:35:04.067Z,22.98
2022-08-26T03:37:33.917Z,23.13
2022-08-26T03:40:04.375Z,23.13
2022-08-26T03:42:36.412Z,22.87
2022-08-26T03:45:10.667Z,22.90
2022-08-26T03:47:41.303Z,22.81
2022-08-26T03:50:14.740Z,22.65
2022-08-26T03:52:47.130Z,23.01
2022-08-26T03:55:18.324Z,22.84
2022-08-26T03:57:48.084Z,22.89
2022-08-26T04:00:18.732Z,22.79
2022-08-26T04:02:51.213Z,22.76
2022-08-26T04:05:23.545Z,22.76
2022-08-26T04:07:54.005Z,22.86
2022-08-26T04:10:29.126Z,22.99
2022-08-26T04:13:00.213Z,23.00
2022-08-26T04:15:30.417Z,23.23
2022-08-26T04:18:00.184Z,23.10
2022-08-26T04:20:29.787Z,22.98
2022-08-26T04:22:59.552Z,22.93
2022-08-26T04:25:29.319Z,22.98
2022-08-26T04:27:59.107Z,22.94
2022-08-26T04:30:28.866Z,23.11
2022-08-26T04:32:58.723Z,23.06
2022-08-26T04:35:28.560Z,23.13
2022-08-26T04:37:59.608Z,22.86
2022-08-26T04:40:29.376Z,22.97
2022-08-26T04:42:59.138Z,23.01
2022-08-26T04:45:30.249Z,23.10
2022-08-26T04:48:00.018Z,22.99
2022-08-26T04:50:29.850Z,22.94
2022-08-26T04:53:00.258Z,23.05
2022-08-26T04:55:39.804Z,23.03
2022-08-26T04:58:02.478Z,22.64
2022-08-26T05:00:32.240Z,22.64
2022-08-26T05:03:02.117Z,22.80
2022-08-26T05:05:31.989Z,22.89
2022-08-26T05:08:01.963Z,23.05
2022-08-26T05:10:33.141Z,23.15
2022-08-26T05:13:03.643Z,23.13
2022-08-26T05:15:36.684Z,22.93
2022-08-26T05:18:08.796Z,22.96
2022-08-26T05:20:44.592Z,22.93
2022-08-26T05:23:15.673Z,23.00
2022-08-26T05:25:48.575Z,23.04
2022-08-26T05:28:20.072Z,22.77
2022-08-26T05:30:52.783Z,22.77
2022-08-26T05:33:23.279Z,22.87
2022-08-26T05:35:53.201Z,22.93
2022-08-26T05:38:23.338Z,23.12
2022-08-26T05:40:54.675Z,23.12
2022-08-26T05:43:24.147Z,23.25
2022-08-26T05:45:54.074Z,23.02
2022-08-26T05:48:24.654Z,23.02
2022-08-26T05:50:54.766Z,22.88
2022-08-26T05:53:25.908Z,22.94
2022-08-26T05:55:58.139Z,23.14
2022-08-26T05:58:28.550Z,23.05
2022-08-26T06:01:01.097Z,23.34
2022-08-26T06:03:31.786Z,23.37
2022-08-26T06:06:04.925Z,23.43
2022-08-26T06:08:37.638Z,23.34
2022-08-26T06:11:18.356Z,23.25
2022-08-26T06:13:43.738Z,23.29
2022-08-26T06:16:16.158Z,23.29
2022-08-26T06:18:48.622Z,23.36
2022-08-26T06:21:30.169Z,23.41
2022-08-26T06:24:20.977Z,23.46
2022-08-26T06:26:56.272Z,23.46
2022-08-26T06:29:27.758Z,23.48
2022-08-26T06:31:58.176Z,23.45
2022-08-26T06:34:31.582Z,23.39
2022-08-26T06:37:03.348Z,23.56
2022-08-26T06:39:33.254Z,23.58
2022-08-26T06:42:03.416Z,23.77
2022-08-26T06:44:36.101Z,23.60
2022-08-26T06:47:06.976Z,23.53
2022-08-26T06:49:37.109Z,23.57
2022-08-26T06:52:08.412Z,23.57
2022-08-26T06:54:41.457Z,23.61
2022-08-26T06:57:14.279Z,23.50
2022-08-26T06:59:45.000Z,23.62
2022-08-26T07:02:15.212Z,23.55
2022-08-26T07:04:47.942Z,23.43
2022-08-26T07:07:17.841Z,23.63
2022-08-26T07:09:49.308Z,23.63
2022-08-26T07:12:20.544Z,23.84
2022-08-26T07:14:50.682Z,23.72
2022-08-26T07:17:20.732Z,23.89
2022-08-26T07:19:52.926Z,23.54
2022-08-26T07:22:22.467Z,23.85
2022-08-26T07:24:53.793Z,23.42
2022-08-26T07:27:23.839Z,23.65
2022-08-26T07:29:56.717Z,23.65
2022-08-26T07:32:26.482Z,23.62
2022-08-26T07:34:56.249Z,23.90
2022-08-26T07:37:26.151Z,24.01
2022-08-26T07:39:55.956Z,23.88
2022-08-26T07:42:25.585Z,23.78
2022-08-26T07:44:55.356Z,23.58
2022-08-26T07:47:26.221Z,23.88
2022-08-26T07:49:58.494Z,23.43
2022-08-26T07:52:30.412Z,23.82
2022-08-26T07:55:04.280Z,23.61
2022-08-26T07:57:34.466Z,23.58
2022-08-26T08:00:08.572Z,23.67
2022-08-26T08:02:40.188Z,23.72
2022-08-26T08:05:10.078Z,23.69
2022-08-26T08:07:44.723Z,23.74
2022-08-26T08:10:21.029Z,23.83
2022-08-26T08:12:51.970Z,23.81
2022-08-26T08:15:26.108Z,23.89
2022-08-26T08:18:00.233Z,23.96
2022-08-26T08:20:29.807Z,23.91
2022-08-26T08:23:00.050Z,23.99
2022-08-26T08:25:29.832Z,23.99
2022-08-26T08:28:00.180Z,23.85
2022-08-26T08:30:30.489Z,24.03
2022-08-26T08:33:01.596Z,24.12
2022-08-26T08:35:32.506Z,24.08
2022-08-26T08:38:04.132Z,23.99
2022-08-26T08:40:34.201Z,24.16
2022-08-26T08:43:23.959Z,23.82
2022-08-26T08:45:59.935Z,24.16
2022-08-26T08:48:33.012Z,24.17
2022-08-26T08:51:20.647Z,24.03
2022-08-26T08:53:54.618Z,24.04
2022-08-26T08:56:33.725Z,24.19
2022-08-26T08:59:14.530Z,24.14
2022-08-26T09:02:03.045Z,24.14
2022-08-26T09:04:52.490Z,23.98
2022-08-26T09:07:25.666Z,24.16
2022-08-26T09:10:20.100Z,24.22
2022-08-26T09:12:51.421Z,23.87
2022-08-26T09:15:30.675Z,24.00
2022-08-26T09:18:18.728Z,23.94
2022-08-26T09:21:00.177Z,24.08
2022-08-26T09:23:30.712Z,23.98
2022-08-26T09:26:17.835Z,24.11
2022-08-26T09:28:51.705Z,24.06
2022-08-26T09:31:29.267Z,24.07
2022-08-26T09:34:08.029Z,23.94
2022-08-26T09:36:43.821Z,24.11
2022-08-26T09:39:31.549Z,24.03
2022-08-26T09:42:16.680Z,24.07
2022-08-26T09:44:56.351Z,23.98
2022-08-26T09:47:35.087Z,23.75
2022-08-26T09:50:13.788Z,23.87
2022-08-26T09:52:43.627Z,24.20
2022-08-26T09:55:16.380Z,23.80
2022-08-26T09:57:55.092Z,23.98
2022-08-26T10:00:45.673Z,23.98
2022-08-26T10:03:18.794Z,24.01
2022-08-26T10:06:03.617Z,24.03
2022-08-26T10:08:38.845Z,24.02
2022-08-26T10:11:29.117Z,24.02
2022-08-26T10:14:04.658Z,24.20
2022-08-26T10:16:37.461Z,24.03
2022-08-26T10:19:16.122Z,24.09
2022-08-26T10:22:01.388Z,24.09
2022-08-26T10:24:34.942Z,24.31
2022-08-26T10:27:23.210Z,24.09
2022-08-26T10:29:56.793Z,23.96
2022-08-26T10:32:35.495Z,24.28
2022-08-26T10:35:10.845Z,24.31
2022-08-26T10:37:48.011Z,23.78
2022-08-26T10:40:28.005Z,23.99
2022-08-26T10:43:12.512Z,24.12
2022-08-26T10:45:57.271Z,24.25
2022-08-26T10:48:47.562Z,24.27
2022-08-26T10:51:20.368Z,24.05
2022-08-26T10:53:57.772Z,23.88
2022-08-26T10:56:41.933Z,23.88
2022-08-26T10:59:17.473Z,24.01
2022-08-26T11:02:06.294Z,24.14
2022-08-26T11:04:50.750Z,24.19
2022-08-26T11:07:39.056Z,24.22
2022-08-26T11:10:23.544Z,24.18
2022-08-26T11:12:59.803Z,23.96
2022-08-26T11:15:30.216Z,24.06
2022-08-26T11:18:07.727Z,24.29
2022-08-26T11:20:44.753Z,24.38
2022-08-26T11:23:26.381Z,24.54
2022-08-26T11:25:59.753Z,24.78
2022-08-26T11:28:49.999Z,24.78
2022-08-26T11:31:29.626Z,24.72
2022-08-26T11:34:08.694Z,24.27
2022-08-26T11:36:49.087Z,24.30
2022-08-26T11:39:36.962Z,24.11
2022-08-26T11:42:28.290Z,24.11
2022-08-26T11:45:02.375Z,24.29
2022-08-26T11:47:32.451Z,23.95
2022-08-26T11:50:11.825Z,23.95
2022-08-26T11:52:41.634Z,23.92
2022-08-26T11:55:14.662Z,24.08
2022-08-26T11:57:50.680Z,24.40
2022-08-26T12:00:23.603Z,24.23
2022-08-26T12:02:55.630Z,24.22
2022-08-26T12:05:31.037Z,24.33
2022-08-26T12:08:03.133Z,24.39
2022-08-26T12:10:34.731Z,24.70
2022-08-26T12:13:07.100Z,24.99
2022-08-26T12:15:37.232Z,25.31
2022-08-26T12:18:28.845Z,24.94
2022-08-26T12:20:52.655Z,25.11
2022-08-26T12:23:26.802Z,24.90
2022-08-26T12:26:05.431Z,24.81
2022-08-26T12:28:44.463Z,25.21
2022-08-26T12:31:17.580Z,25.37
2022-08-26T12:33:49.476Z,25.75
2022-08-26T12:36:22.120Z,25.44
2022-08-26T12:38:53.709Z,25.57
2022-08-26T12:41:44.432Z,25.76
2022-08-26T12:44:36.553Z,25.02
2022-08-26T12:47:11.821Z,25.16
2022-08-26T12:49:43.628Z,24.97
2022-08-26T12:52:26.672Z,24.89
2022-08-26T12:55:00.465Z,24.72
2022-08-26T12:57:36.550Z,25.25
2022-08-26T13:00:28.496Z,25.23
2022-08-26T13:02:59.519Z,25.08
2022-08-26T13:05:35.508Z,25.08
2022-08-26T13:08:19.351Z,25.14
2022-08-26T13:10:50.685Z,25.12
2022-08-26T13:13:20.449Z,25.00
2022-08-26T13:15:50.100Z,24.68
2022-08-26T13:18:19.881Z,24.31
2022-08-26T13:20:49.396Z,24.44
2022-08-26T13:23:21.125Z,24.13
2022-08-26T13:25:51.505Z,24.43
2022-08-26T13:28:20.997Z,24.31
2022-08-26T13:30:50.762Z,24.27
2022-08-26T13:33:21.489Z,24.40
2022-08-26T13:35:51.257Z,24.32
2022-08-26T13:38:32.964Z,24.23
2022-08-26T13:40:52.805Z,24.36
2022-08-26T13:43:22.568Z,24.08
2022-08-26T13:45:52.319Z,24.03
2022-08-26T13:48:23.674Z,23.88
2022-08-26T13:50:53.751Z,23.90
2022-08-26T13:53:23.575Z,23.92
2022-08-26T13:55:53.338Z,23.92
2022-08-26T13:58:23.015Z,24.19
2022-08-26T14:00:55.567Z,24.38
2022-08-26T14:03:25.785Z,24.53
2022-08-26T14:05:55.891Z,24.59
2022-08-26T14:08:25.551Z,24.69
2022-08-26T14:10:55.485Z,24.55
2022-08-26T14:13:25.298Z,24.63
2022-08-26T14:15:56.444Z,24.60
2022-08-26T14:18:29.557Z,24.54
2022-08-26T14:21:00.144Z,24.82
2022-08-26T14:23:29.936Z,24.54
2022-08-26T14:26:00.040Z,24.74
2022-08-26T14:28:29.801Z,24.73
2022-08-26T14:30:59.954Z,25.05
2022-08-26T14:33:32.591Z,24.85
2022-08-26T14:36:20.418Z,24.81
2022-08-26T14:38:50.723Z,24.81
2022-08-26T14:41:21.528Z,24.74
2022-08-26T14:43:59.259Z,24.32
2022-08-26T14:46:34.821Z,24.37
2022-08-26T14:49:09.875Z,24.55
2022-08-26T14:51:36.994Z,24.34
2022-08-26T14:54:12.231Z,24.26
2022-08-26T14:56:51.160Z,24.46
2022-08-26T14:59:24.028Z,24.46
2022-08-26T15:01:54.705Z,24.60
2022-08-26T15:04:25.319Z,24.98
2022-08-26T15:06:57.086Z,24.88
2022-08-26T15:09:28.282Z,24.45
2022-08-26T15:11:58.045Z,24.37
2022-08-26T15:14:32.694Z,24.37
2022-08-26T15:16:59.642Z,24.50
2022-08-26T15:19:29.839Z,24.61
2022-08-26T15:21:59.589Z,24.69
2022-08-26T15:24:29.918Z,24.67
2022-08-26T15:26:59.685Z,24.63
2022-08-26T15:29:29.815Z,24.20
2022-08-26T15:32:01.581Z,24.62
2022-08-26T15:34:31.968Z,24.53
2022-08-26T15:37:02.004Z,25.00
2022-08-26T15:39:31.851Z,24.78
2022-08-26T15:42:02.076Z,24.87
2022-08-26T15:44:33.549Z,24.88
2022-08-26T15:47:03.518Z,24.69
2022-08-26T15:49:33.258Z,24.79
2022-08-26T15:52:05.294Z,25.16
2022-08-26T15:54:35.139Z,25.42
2022-08-26T15:57:08.194Z,25.35
2022-08-26T15:59:36.711Z,25.54
2022-08-26T16:02:08.083Z,25.12
2022-08-26T16:04:38.077Z,25.39
2022-08-26T16:07:07.845Z,25.11
2022-08-26T16:09:37.680Z,24.83
2022-08-26T16:12:08.570Z,24.73
2022-08-26T16:14:38.817Z,24.80
2022-08-26T16:17:08.596Z,24.60
2022-08-26T16:19:38.429Z,24.68
2022-08-26T16:22:09.591Z,24.79
2022-08-26T16:24:39.607Z,24.41
2022-08-26T16:27:09.849Z,24.31
2022-08-26T16:29:39.766Z,24.24
2022-08-26T16:32:11.487Z,24.24
2022-08-26T16:34:46.972Z,24.34
2022-08-26T16:37:14.785Z,24.00
2022-08-26T16:39:45.260Z,24.48
2022-08-26T16:42:15.235Z,24.46
2022-08-26T16:44:45.075Z,24.21
2022-08-26T16:47:15.967Z,24.14
2022-08-26T16:49:46.739Z,23.91
2022-08-26T16:52:16.383Z,23.91
2022-08-26T16:54:46.162Z,24.04
2022-08-26T16:57:16.000Z,23.99
2022-08-26T16:59:45.934Z,24.26
2022-08-26T17:02:15.858Z,24.35
2022-08-26T17:04:47.156Z,23.86
2022-08-26T17:07:17.107Z,23.98
2022-08-26T17:09:46.863Z,23.88
2022-08-26T17:12:17.211Z,23.88
2022-08-26T17:14:46.974Z,23.71
2022-08-26T17:17:16.743Z,23.83
2022-08-26T17:19:47.400Z,23.71
2022-08-26T17:22:17.612Z,23.78
2022-08-26T17:24:47.394Z,23.56
2022-08-26T17:27:17.152Z,23.68
2022-08-26T17:29:46.922Z,23.30
2022-08-26T17:32:17.048Z,23.32
2022-08-26T17:34:46.809Z,23.32
2022-08-26T17:37:17.348Z,23.39
2022-08-26T17:39:47.120Z,23.35
2022-08-26T17:42:16.788Z,23.14
2022-08-26T17:44:48.296Z,23.14
2022-08-26T17:47:18.418Z,23.05
2022-08-26T17:49:48.349Z,22.97
2022-08-26T17:52:18.109Z,22.99
2022-08-26T17:54:47.875Z,22.69
2022-08-26T17:57:17.639Z,22.69
2022-08-26T17:59:48.490Z,22.74
2022-08-26T18:02:18.340Z,22.78
2022-08-26T18:04:48.936Z,22.80
2022-08-26T18:07:19.025Z,22.61
2022-08-26T18:09:48.797Z,22.69
2022-08-26T18:12:18.298Z,22.84
2022-08-26T18:14:48.410Z,22.46
2022-08-26T18:17:19.420Z,22.46
2022-08-26T18:19:49.376Z,22.40
2022-08-26T18:22:19.150Z,22.64
2022-08-26T18:24:58.655Z,22.64
2022-08-26T18:27:20.102Z,22.85
2022-08-26T18:29:50.339Z,22.85
2022-08-26T18:32:20.098Z,22.65
2022-08-26T18:34:49.872Z,22.72
2022-08-26T18:37:19.630Z,22.29
2022-08-26T18:39:49.425Z,22.29
2022-08-26T18:42:19.042Z,22.28
2022-08-26T18:44:53.089Z,22.10
2022-08-26T18:47:23.091Z,21.73
2022-08-26T18:49:52.865Z,21.73
2022-08-26T18:52:22.787Z,21.86
2022-08-26T18:54:53.908Z,22.09
2022-08-26T18:57:23.900Z,22.13
2022-08-26T18:59:53.671Z,22.02
2022-08-26T19:02:24.317Z,22.02
2022-08-26T19:04:54.347Z,22.04
2022-08-26T19:07:24.094Z,21.95
2022-08-26T19:09:54.264Z,21.86
2022-08-26T19:12:26.974Z,21.86
2022-08-26T19:14:56.903Z,21.94
2022-08-26T19:17:27.054Z,21.92
2022-08-26T19:19:56.813Z,21.71
2022-08-26T19:22:26.573Z,21.93
2022-08-26T19:24:56.357Z,21.75
2022-08-26T19:27:26.119Z,21.86
2022-08-26T19:29:57.629Z,21.95
2022-08-26T19:32:27.197Z,21.84
2022-08-26T19:34:56.963Z,21.91
2022-08-26T19:37:26.737Z,21.83
2022-08-26T19:39:56.833Z,21.84
2022-08-26T19:42:26.765Z,21.74
2022-08-26T19:45:20.237Z,21.74
2022-08-26T19:47:41.825Z,21.84
2022-08-26T19:50:15.064Z,21.66
2022-08-26T19:52:45.195Z,21.76
2022-08-26T19:55:17.092Z,21.83
2022-08-26T19:57:47.023Z,21.85
2022-08-26T20:00:19.796Z,21.70
2022-08-26T20:02:50.425Z,21.63
2022-08-26T20:05:22.156Z,21.69
2022-08-26T20:07:52.327Z,21.70
2022-08-26T20:10:24.337Z,21.68
2022-08-26T20:12:54.339Z,21.59
2022-08-26T20:15:24.448Z,21.49
2022-08-26T20:17:56.192Z,21.66
2022-08-26T20:20:43.341Z,21.65
2022-08-26T20:23:13.176Z,21.70
2022-08-26T20:25:43.228Z,21.79
2022-08-26T20:28:13.001Z,21.85
2022-08-26T20:30:43.079Z,21.76
2022-08-26T20:33:12.846Z,21.62
2022-08-26T20:35:43.182Z,21.62
2022-08-26T20:38:13.021Z,21.59
2022-08-26T20:40:43.460Z,21.57
2022-08-26T20:43:13.254Z,21.67
2022-08-26T20:45:43.397Z,21.29
2022-08-26T20:48:14.493Z,21.51
2022-08-26T20:50:44.335Z,21.47
2022-08-26T20:53:14.352Z,21.36
2022-08-26T20:55:44.134Z,21.51
2022-08-26T20:58:13.981Z,21.33
2022-08-26T21:00:44.114Z,21.33
2022-08-26T21:03:14.223Z,21.45
2022-08-26T21:05:44.070Z,21.38
2022-08-26T21:08:13.915Z,21.40
2022-08-26T21:10:43.657Z,21.46
2022-08-26T21:13:15.114Z,21.54
2022-08-26T21:15:45.321Z,21.40
2022-08-26T21:18:15.100Z,21.35
2022-08-26T21:20:44.865Z,21.19
2022-08-26T21:23:14.700Z,21.38
2022-08-26T21:25:44.743Z,21.04
2022-08-26T21:28:14.515Z,21.41
2022-08-26T21:30:44.434Z,21.46
2022-08-26T21:33:14.271Z,21.15
2022-08-26T21:35:45.538Z,21.11
2022-08-26T21:38:15.173Z,20.88
2022-08-26T21:40:44.937Z,20.88
2022-08-26T21:43:20.606Z,20.89
2022-08-26T21:45:45.949Z,20.78
2022-08-26T21:48:15.735Z,20.88
2022-08-26T21:50:45.495Z,20.69
2022-08-26T21:53:15.424Z,20.84
2022-08-26T21:55:45.492Z,20.85
2022-08-26T21:58:15.741Z,20.78
2022-08-26T22:00:50.901Z,20.78
2022-08-26T22:03:20.458Z,20.66
2022-08-26T22:05:51.101Z,20.67
2022-08-26T22:08:23.350Z,20.72
2022-08-26T22:10:55.010Z,20.70
2022-08-26T22:13:29.225Z,20.75
2022-08-26T22:16:00.760Z,20.72
2022-08-26T22:18:30.941Z,20.72
2022-08-26T22:21:03.539Z,20.72
2022-08-26T22:23:34.929Z,20.73
2022-08-26T22:26:07.978Z,20.82
2022-08-26T22:28:39.249Z,20.71
2022-08-26T22:31:11.223Z,20.78
2022-08-26T22:33:42.762Z,20.69
2022-08-26T22:36:25.190Z,20.45
2022-08-26T22:38:56.802Z,20.44
2022-08-26T22:41:26.959Z,20.31
2022-08-26T22:43:56.728Z,20.36
2022-08-26T22:46:27.726Z,20.24
2022-08-26T22:48:57.754Z,20.15
2022-08-26T22:51:27.857Z,20.00
2022-08-26T22:53:57.985Z,20.08
2022-08-26T22:56:27.857Z,19.98
2022-08-26T22:58:57.922Z,20.02
2022-08-26T23:01:28.133Z,19.96
2022-08-26T23:03:58.181Z,19.95
2022-08-26T23:06:27.753Z,19.99
2022-08-26T23:08:57.527Z,19.99
2022-08-26T23:11:27.291Z,19.90
2022-08-26T23:13:57.234Z,19.76
2022-08-26T23:16:26.781Z,19.74
2022-08-26T23:18:56.485Z,19.51
2022-08-26T23:21:26.273Z,19.43
2022-08-26T23:23:56.200Z,19.43
2022-08-26T23:26:25.977Z,19.55
2022-08-26T23:28:56.393Z,19.49
2022-08-26T23:31:26.008Z,19.42
2022-08-26T23:34:13.574Z,19.42
2022-08-26T23:36:44.603Z,19.46
2022-08-26T23:39:15.554Z,19.39
2022-08-26T23:41:45.384Z,19.31
2022-08-26T23:44:14.973Z,19.27
2022-08-26T23:46:44.513Z,19.29
2022-08-26T23:49:14.345Z,19.18
2022-08-26T23:52:01.842Z,19.23
2022-08-26T23:54:33.073Z,19.17
2022-08-26T23:57:02.999Z,19.12
2022-08-26T23:59:33.869Z,19.03
